sensor_id;sensor_type;location;lat;lon;timestamp;temperature;humidity
43346;DHT22;28937;51.160;4.146;2022-09-01T00:01:09;23.50;65.10
43346;DHT22;28937;51.160;4.146;2022-09-01T00:03:35;23.20;65.70
43346;DHT22;28937;51.160;4.146;2022-09-01T00:06:01;23.20;65.80
43346;DHT22;28937;51.160;4.146;2022-09-01T00:08:28;23.20;65.90
43346;DHT22;28937;51.160;4.146;2022-09-01T00:10:54;23.20;65.90
43346;DHT22;28937;51.160;4.146;2022-09-01T00:13:19;23.40;65.50
43346;DHT22;28937;51.160;4.146;2022-09-01T00:15:45;23.50;65.20
43346;DHT22;28937;51.160;4.146;2022-09-01T00:18:10;23.50;65.50
43346;DHT22;28937;51.160;4.146;2022-09-01T00:20:36;23.70;65.30
43346;DHT22;28937;51.160;4.146;2022-09-01T00:23:01;23.50;65.50
43346;DHT22;28937;51.160;4.146;2022-09-01T00:25:27;23.50;65.30
43346;DHT22;28937;51.160;4.146;2022-09-01T00:27:53;23.50;65.40
43346;DHT22;28937;51.160;4.146;2022-09-01T00:30:20;23.40;65.70
43346;DHT22;28937;51.160;4.146;2022-09-01T00:32:46;23.40;65.70
43346;DHT22;28937;51.160;4.146;2022-09-01T00:35:17;23.30;65.90
43346;DHT22;28937;51.160;4.146;2022-09-01T00:37:43;23.40;65.80
43346;DHT22;28937;51.160;4.146;2022-09-01T00:40:11;23.40;65.90
43346;DHT22;28937;51.160;4.146;2022-09-01T00:42:39;23.40;65.60
43346;DHT22;28937;51.160;4.146;2022-09-01T00:45:06;23.40;65.60
43346;DHT22;28937;51.160;4.146;2022-09-01T00:47:33;23.40;65.40
43346;DHT22;28937;51.160;4.146;2022-09-01T00:50:02;23.40;65.40
43346;DHT22;28937;51.160;4.146;2022-09-01T00:52:38;23.30;65.50
43346;DHT22;28937;51.160;4.146;2022-09-01T00:55:11;23.30;65.50
43346;DHT22;28937;51.160;4.146;2022-09-01T00:57:37;23.30;65.50
43346;DHT22;28937;51.160;4.146;2022-09-01T01:00:17;23.20;65.70
43346;DHT22;28937;51.160;4.146;2022-09-01T01:02:44;23.10;65.60
43346;DHT22;28937;51.160;4.146;2022-09-01T01:05:12;23.20;65.30
43346;DHT22;28937;51.160;4.146;2022-09-01T01:07:39;23.20;65.30
43346;DHT22;28937;51.160;4.146;2022-09-01T01:10:10;23.20;65.20
43346;DHT22;28937;51.160;4.146;2022-09-01T01:12:39;23.20;65.10
43346;DHT22;28937;51.160;4.146;2022-09-01T01:15:10;23.10;65.40
43346;DHT22;28937;51.160;4.146;2022-09-01T01:17:36;23.10;65.20
43346;DHT22;28937;51.160;4.146;2022-09-01T01:20:05;23.20;64.90
43346;DHT22;28937;51.160;4.146;2022-09-01T01:25:42;23.00;64.90
43346;DHT22;28937;51.160;4.146;2022-09-01T01:28:38;22.80;65.10
43346;DHT22;28937;51.160;4.146;2022-09-01T01:31:15;22.70;65.30
43346;DHT22;28937;51.160;4.146;2022-09-01T01:33:43;22.70;65.30
43346;DHT22;28937;51.160;4.146;2022-09-01T01:36:12;22.80;65.00
43346;DHT22;28937;51.160;4.146;2022-09-01T01:38:45;22.70;64.90
43346;DHT22;28937;51.160;4.146;2022-09-01T01:41:12;22.70;64.80
43346;DHT22;28937;51.160;4.146;2022-09-01T01:43:39;22.50;65.40
43346;DHT22;28937;51.160;4.146;2022-09-01T01:46:07;22.50;65.30
43346;DHT22;28937;51.160;4.146;2022-09-01T01:48:35;22.60;64.90
43346;DHT22;28937;51.160;4.146;2022-09-01T01:51:02;22.70;64.90
43346;DHT22;28937;51.160;4.146;2022-09-01T01:53:29;22.60;64.80
43346;DHT22;28937;51.160;4.146;2022-09-01T01:55:55;22.60;64.80
43346;DHT22;28937;51.160;4.146;2022-09-01T01:58:23;22.70;64.40
43346;DHT22;28937;51.160;4.146;2022-09-01T02:00:52;22.70;64.30
43346;DHT22;28937;51.160;4.146;2022-09-01T02:03:23;22.60;64.50
43346;DHT22;28937;51.160;4.146;2022-09-01T02:05:51;22.50;64.80
43346;DHT22;28937;51.160;4.146;2022-09-01T02:08:19;22.50;64.80
43346;DHT22;28937;51.160;4.146;2022-09-01T02:10:51;22.50;64.80
43346;DHT22;28937;51.160;4.146;2022-09-01T02:13:18;22.40;64.90
43346;DHT22;28937;51.160;4.146;2022-09-01T02:15:53;22.50;65.10
43346;DHT22;28937;51.160;4.146;2022-09-01T02:18:34;22.30;64.90
43346;DHT22;28937;51.160;4.146;2022-09-01T02:21:04;22.30;65.40
43346;DHT22;28937;51.160;4.146;2022-09-01T02:23:34;22.20;65.60
43346;DHT22;28937;51.160;4.146;2022-09-01T02:26:00;22.20;65.60
43346;DHT22;28937;51.160;4.146;2022-09-01T02:28:28;22.20;65.80
43346;DHT22;28937;51.160;4.146;2022-09-01T02:30:56;22.00;66.00
43346;DHT22;28937;51.160;4.146;2022-09-01T02:33:25;21.80;66.30
43346;DHT22;28937;51.160;4.146;2022-09-01T02:35:54;22.00;66.40
43346;DHT22;28937;51.160;4.146;2022-09-01T02:38:21;21.90;66.40
43346;DHT22;28937;51.160;4.146;2022-09-01T02:40:51;22.20;66.10
43346;DHT22;28937;51.160;4.146;2022-09-01T02:43:19;22.20;66.10
43346;DHT22;28937;51.160;4.146;2022-09-01T02:45:50;22.20;66.00
43346;DHT22;28937;51.160;4.146;2022-09-01T02:48:20;22.00;66.20
43346;DHT22;28937;51.160;4.146;2022-09-01T02:50:49;22.10;66.20
43346;DHT22;28937;51.160;4.146;2022-09-01T02:53:15;22.10;66.40
43346;DHT22;28937;51.160;4.146;2022-09-01T02:55:41;22.00;66.40
43346;DHT22;28937;51.160;4.146;2022-09-01T02:58:08;22.00;66.50
43346;DHT22;28937;51.160;4.146;2022-09-01T03:00:45;22.10;66.40
43346;DHT22;28937;51.160;4.146;2022-09-01T03:03:17;22.10;67.10
43346;DHT22;28937;51.160;4.146;2022-09-01T03:05:44;22.10;66.40
43346;DHT22;28937;51.160;4.146;2022-09-01T03:08:10;22.00;66.60
43346;DHT22;28937;51.160;4.146;2022-09-01T03:10:42;22.00;66.70
43346;DHT22;28937;51.160;4.146;2022-09-01T03:13:13;21.90;67.00
43346;DHT22;28937;51.160;4.146;2022-09-01T03:15:39;21.90;67.20
43346;DHT22;28937;51.160;4.146;2022-09-01T03:18:06;21.80;67.00
43346;DHT22;28937;51.160;4.146;2022-09-01T03:20:33;21.90;67.20
43346;DHT22;28937;51.160;4.146;2022-09-01T03:23:04;21.80;67.40
43346;DHT22;28937;51.160;4.146;2022-09-01T03:25:31;21.40;68.20
43346;DHT22;28937;51.160;4.146;2022-09-01T03:27:57;21.60;68.20
43346;DHT22;28937;51.160;4.146;2022-09-01T03:30:24;21.60;68.00
43346;DHT22;28937;51.160;4.146;2022-09-01T03:32:51;21.70;68.00
43346;DHT22;28937;51.160;4.146;2022-09-01T03:35:16;21.40;68.40
43346;DHT22;28937;51.160;4.146;2022-09-01T03:37:42;21.50;68.50
43346;DHT22;28937;51.160;4.146;2022-09-01T03:40:11;21.60;68.30
43346;DHT22;28937;51.160;4.146;2022-09-01T03:42:37;21.80;67.90
43346;DHT22;28937;51.160;4.146;2022-09-01T03:45:05;21.90;67.50
43346;DHT22;28937;51.160;4.146;2022-09-01T03:47:37;21.60;68.20
43346;DHT22;28937;51.160;4.146;2022-09-01T03:50:17;21.70;68.00
43346;DHT22;28937;51.160;4.146;2022-09-01T03:52:47;21.70;68.00
43346;DHT22;28937;51.160;4.146;2022-09-01T03:55:15;21.80;67.90
43346;DHT22;28937;51.160;4.146;2022-09-01T03:57:49;21.90;67.80
43346;DHT22;28937;51.160;4.146;2022-09-01T04:00:15;21.70;67.90
43346;DHT22;28937;51.160;4.146;2022-09-01T04:02:46;21.90;67.70
43346;DHT22;28937;51.160;4.146;2022-09-01T04:05:16;21.80;68.00
43346;DHT22;28937;51.160;4.146;2022-09-01T04:07:42;21.60;68.40
43346;DHT22;28937;51.160;4.146;2022-09-01T04:10:10;21.50;68.80
43346;DHT22;28937;51.160;4.146;2022-09-01T04:12:36;21.40;68.90
43346;DHT22;28937;51.160;4.146;2022-09-01T04:15:03;21.60;68.70
43346;DHT22;28937;51.160;4.146;2022-09-01T04:17:30;21.50;68.90
43346;DHT22;28937;51.160;4.146;2022-09-01T04:20:14;21.50;69.00
43346;DHT22;28937;51.160;4.146;2022-09-01T04:22:44;21.60;68.80
43346;DHT22;28937;51.160;4.146;2022-09-01T04:25:12;21.60;68.90
43346;DHT22;28937;51.160;4.146;2022-09-01T04:27:38;21.60;68.90
43346;DHT22;28937;51.160;4.146;2022-09-01T04:30:05;21.50;68.90
43346;DHT22;28937;51.160;4.146;2022-09-01T04:32:38;21.60;69.00
43346;DHT22;28937;51.160;4.146;2022-09-01T04:35:05;21.60;68.90
43346;DHT22;28937;51.160;4.146;2022-09-01T04:37:32;21.50;69.30
43346;DHT22;28937;51.160;4.146;2022-09-01T04:40:01;21.40;69.50
43346;DHT22;28937;51.160;4.146;2022-09-01T04:42:28;21.40;69.50
43346;DHT22;28937;51.160;4.146;2022-09-01T04:44:54;21.40;69.70
43346;DHT22;28937;51.160;4.146;2022-09-01T04:47:22;21.40;69.70
43346;DHT22;28937;51.160;4.146;2022-09-01T04:49:55;21.50;69.60
43346;DHT22;28937;51.160;4.146;2022-09-01T04:52:23;21.30;69.70
43346;DHT22;28937;51.160;4.146;2022-09-01T04:54:49;21.30;70.00
43346;DHT22;28937;51.160;4.146;2022-09-01T04:57:14;21.20;70.40
43346;DHT22;28937;51.160;4.146;2022-09-01T04:59:41;20.90;71.60
43346;DHT22;28937;51.160;4.146;2022-09-01T05:02:08;20.90;71.90
43346;DHT22;28937;51.160;4.146;2022-09-01T05:04:36;21.00;71.90
43346;DHT22;28937;51.160;4.146;2022-09-01T05:07:03;20.90;72.00
43346;DHT22;28937;51.160;4.146;2022-09-01T05:09:31;20.90;72.20
43346;DHT22;28937;51.160;4.146;2022-09-01T05:11:57;21.10;71.70
43346;DHT22;28937;51.160;4.146;2022-09-01T05:14:26;21.20;71.50
43346;DHT22;28937;51.160;4.146;2022-09-01T05:16:56;21.10;71.60
43346;DHT22;28937;51.160;4.146;2022-09-01T05:19:25;21.20;71.50
43346;DHT22;28937;51.160;4.146;2022-09-01T05:21:53;21.10;71.60
43346;DHT22;28937;51.160;4.146;2022-09-01T05:24:22;21.20;71.50
43346;DHT22;28937;51.160;4.146;2022-09-01T05:26:54;21.20;71.80
43346;DHT22;28937;51.160;4.146;2022-09-01T05:29:20;21.00;72.20
43346;DHT22;28937;51.160;4.146;2022-09-01T05:31:47;20.90;72.30
43346;DHT22;28937;51.160;4.146;2022-09-01T05:34:15;20.80;72.50
43346;DHT22;28937;51.160;4.146;2022-09-01T05:36:51;20.80;72.60
43346;DHT22;28937;51.160;4.146;2022-09-01T05:39:18;21.10;72.10
43346;DHT22;28937;51.160;4.146;2022-09-01T05:41:43;21.10;71.70
43346;DHT22;28937;51.160;4.146;2022-09-01T05:44:11;21.10;71.80
43346;DHT22;28937;51.160;4.146;2022-09-01T05:46:38;21.00;72.40
43346;DHT22;28937;51.160;4.146;2022-09-01T05:49:05;20.90;72.70
43346;DHT22;28937;51.160;4.146;2022-09-01T05:51:32;20.80;73.00
43346;DHT22;28937;51.160;4.146;2022-09-01T05:54:00;20.80;73.20
43346;DHT22;28937;51.160;4.146;2022-09-01T05:56:28;20.80;73.20
43346;DHT22;28937;51.160;4.146;2022-09-01T05:58:54;20.90;73.00
43346;DHT22;28937;51.160;4.146;2022-09-01T06:01:23;21.00;72.70
43346;DHT22;28937;51.160;4.146;2022-09-01T06:03:51;21.10;72.60
43346;DHT22;28937;51.160;4.146;2022-09-01T06:06:20;21.10;72.50
43346;DHT22;28937;51.160;4.146;2022-09-01T06:08:50;21.20;72.40
43346;DHT22;28937;51.160;4.146;2022-09-01T06:11:17;21.10;72.30
43346;DHT22;28937;51.160;4.146;2022-09-01T06:13:46;21.30;71.80
43346;DHT22;28937;51.160;4.146;2022-09-01T06:16:13;21.10;72.30
43346;DHT22;28937;51.160;4.146;2022-09-01T06:18:40;21.60;71.40
43346;DHT22;28937;51.160;4.146;2022-09-01T06:21:08;21.80;70.80
43346;DHT22;28937;51.160;4.146;2022-09-01T06:23:35;21.80;71.40
43346;DHT22;28937;51.160;4.146;2022-09-01T06:26:00;21.80;71.00
43346;DHT22;28937;51.160;4.146;2022-09-01T06:28:28;21.40;72.10
43346;DHT22;28937;51.160;4.146;2022-09-01T06:30:55;21.40;71.50
43346;DHT22;28937;51.160;4.146;2022-09-01T06:33:22;21.40;71.50
43346;DHT22;28937;51.160;4.146;2022-09-01T06:35:50;21.50;71.40
43346;DHT22;28937;51.160;4.146;2022-09-01T06:38:17;21.60;71.40
43346;DHT22;28937;51.160;4.146;2022-09-01T06:40:44;21.70;71.20
43346;DHT22;28937;51.160;4.146;2022-09-01T06:43:10;21.60;71.20
43346;DHT22;28937;51.160;4.146;2022-09-01T06:45:41;21.80;71.20
43346;DHT22;28937;51.160;4.146;2022-09-01T06:48:08;21.80;70.90
43346;DHT22;28937;51.160;4.146;2022-09-01T06:50:34;21.70;71.00
43346;DHT22;28937;51.160;4.146;2022-09-01T06:53:00;21.80;71.10
43346;DHT22;28937;51.160;4.146;2022-09-01T06:55:37;21.70;71.10
43346;DHT22;28937;51.160;4.146;2022-09-01T06:58:09;21.60;71.50
43346;DHT22;28937;51.160;4.146;2022-09-01T07:00:38;21.70;71.60
43346;DHT22;28937;51.160;4.146;2022-09-01T07:03:08;21.70;71.60
43346;DHT22;28937;51.160;4.146;2022-09-01T07:05:43;21.90;71.40
43346;DHT22;28937;51.160;4.146;2022-09-01T07:08:12;21.80;71.40
43346;DHT22;28937;51.160;4.146;2022-09-01T07:10:45;21.90;71.30
43346;DHT22;28937;51.160;4.146;2022-09-01T07:13:13;22.10;70.90
43346;DHT22;28937;51.160;4.146;2022-09-01T07:15:45;22.10;71.10
43346;DHT22;28937;51.160;4.146;2022-09-01T07:18:19;22.20;70.80
43346;DHT22;28937;51.160;4.146;2022-09-01T07:20:47;22.20;70.90
43346;DHT22;28937;51.160;4.146;2022-09-01T07:23:14;22.00;71.20
43346;DHT22;28937;51.160;4.146;2022-09-01T07:25:42;22.20;71.00
43346;DHT22;28937;51.160;4.146;2022-09-01T07:28:09;22.40;70.70
43346;DHT22;28937;51.160;4.146;2022-09-01T07:30:48;22.40;70.50
43346;DHT22;28937;51.160;4.146;2022-09-01T07:33:15;22.50;70.50
43346;DHT22;28937;51.160;4.146;2022-09-01T07:35:45;22.60;70.40
43346;DHT22;28937;51.160;4.146;2022-09-01T07:38:11;22.60;70.20
43346;DHT22;28937;51.160;4.146;2022-09-01T07:40:41;22.70;70.10
43346;DHT22;28937;51.160;4.146;2022-09-01T07:43:14;22.50;70.30
43346;DHT22;28937;51.160;4.146;2022-09-01T07:45:43;22.40;70.50
43346;DHT22;28937;51.160;4.146;2022-09-01T07:48:11;22.60;70.30
43346;DHT22;28937;51.160;4.146;2022-09-01T07:50:41;22.60;70.20
43346;DHT22;28937;51.160;4.146;2022-09-01T07:53:13;22.80;70.20
43346;DHT22;28937;51.160;4.146;2022-09-01T07:55:43;22.90;70.00
43346;DHT22;28937;51.160;4.146;2022-09-01T07:58:10;22.90;70.40
43346;DHT22;28937;51.160;4.146;2022-09-01T08:00:40;22.90;69.80
43346;DHT22;28937;51.160;4.146;2022-09-01T08:03:10;23.00;69.70
43346;DHT22;28937;51.160;4.146;2022-09-01T08:05:36;23.00;69.80
43346;DHT22;28937;51.160;4.146;2022-09-01T08:08:02;23.10;69.80
43346;DHT22;28937;51.160;4.146;2022-09-01T08:10:28;23.10;69.90
43346;DHT22;28937;51.160;4.146;2022-09-01T08:12:54;23.10;69.10
43346;DHT22;28937;51.160;4.146;2022-09-01T08:15:20;23.20;69.40
43346;DHT22;28937;51.160;4.146;2022-09-01T08:17:45;23.20;69.40
43346;DHT22;28937;51.160;4.146;2022-09-01T08:20:11;23.20;69.40
43346;DHT22;28937;51.160;4.146;2022-09-01T08:22:37;23.30;69.40
43346;DHT22;28937;51.160;4.146;2022-09-01T08:25:07;23.30;69.50
43346;DHT22;28937;51.160;4.146;2022-09-01T08:27:36;23.30;69.40
43346;DHT22;28937;51.160;4.146;2022-09-01T08:30:05;23.40;69.80
43346;DHT22;28937;51.160;4.146;2022-09-01T08:32:32;23.40;69.10
43346;DHT22;28937;51.160;4.146;2022-09-01T08:34:59;23.50;69.40
43346;DHT22;28937;51.160;4.146;2022-09-01T08:37:25;23.40;69.80
43346;DHT22;28937;51.160;4.146;2022-09-01T08:39:51;23.40;69.80
43346;DHT22;28937;51.160;4.146;2022-09-01T08:43:00;23.50;70.20
43346;DHT22;28937;51.160;4.146;2022-09-01T08:45:26;23.60;69.40
43346;DHT22;28937;51.160;4.146;2022-09-01T08:47:55;23.50;70.10
43346;DHT22;28937;51.160;4.146;2022-09-01T08:50:22;23.60;69.50
43346;DHT22;28937;51.160;4.146;2022-09-01T08:52:59;23.60;69.80
43346;DHT22;28937;51.160;4.146;2022-09-01T08:55:38;23.60;69.40
43346;DHT22;28937;51.160;4.146;2022-09-01T08:58:04;23.50;69.40
43346;DHT22;28937;51.160;4.146;2022-09-01T09:00:38;23.50;69.60
43346;DHT22;28937;51.160;4.146;2022-09-01T09:03:19;23.60;69.50
43346;DHT22;28937;51.160;4.146;2022-09-01T09:06:12;23.50;69.60
43346;DHT22;28937;51.160;4.146;2022-09-01T09:08:55;23.60;69.70
43346;DHT22;28937;51.160;4.146;2022-09-01T09:14:10;23.60;69.60
43346;DHT22;28937;51.160;4.146;2022-09-01T09:16:40;23.60;69.90
43346;DHT22;28937;51.160;4.146;2022-09-01T09:19:13;23.70;70.50
43346;DHT22;28937;51.160;4.146;2022-09-01T09:21:44;23.70;70.30
43346;DHT22;28937;51.160;4.146;2022-09-01T09:24:33;23.70;69.60
43346;DHT22;28937;51.160;4.146;2022-09-01T09:27:28;23.70;69.80
43346;DHT22;28937;51.160;4.146;2022-09-01T09:30:41;23.70;69.70
43346;DHT22;28937;51.160;4.146;2022-09-01T09:32:52;23.70;69.60
43346;DHT22;28937;51.160;4.146;2022-09-01T09:35:27;23.70;69.50
43346;DHT22;28937;51.160;4.146;2022-09-01T09:37:55;23.80;69.60
43346;DHT22;28937;51.160;4.146;2022-09-01T09:40:25;23.80;71.00
43346;DHT22;28937;51.160;4.146;2022-09-01T09:45:35;23.80;70.20
43346;DHT22;28937;51.160;4.146;2022-09-01T09:48:26;23.80;70.50
43346;DHT22;28937;51.160;4.146;2022-09-01T09:50:52;23.70;70.70
43346;DHT22;28937;51.160;4.146;2022-09-01T09:58:44;24.00;70.50
43346;DHT22;28937;51.160;4.146;2022-09-01T10:03:51;23.90;69.70
43346;DHT22;28937;51.160;4.146;2022-09-01T10:06:36;23.80;70.10
43346;DHT22;28937;51.160;4.146;2022-09-01T10:09:09;23.70;70.00
43346;DHT22;28937;51.160;4.146;2022-09-01T10:11:42;23.70;69.80
43346;DHT22;28937;51.160;4.146;2022-09-01T10:14:41;23.80;70.90
43346;DHT22;28937;51.160;4.146;2022-09-01T10:17:13;23.70;69.50
43346;DHT22;28937;51.160;4.146;2022-09-01T10:19:48;23.60;69.90
43346;DHT22;28937;51.160;4.146;2022-09-01T10:22:15;23.70;70.20
43346;DHT22;28937;51.160;4.146;2022-09-01T10:24:40;23.70;69.70
43346;DHT22;28937;51.160;4.146;2022-09-01T10:27:11;23.60;69.80
43346;DHT22;28937;51.160;4.146;2022-09-01T10:30:02;23.70;70.20
43346;DHT22;28937;51.160;4.146;2022-09-01T10:32:51;23.70;69.40
43346;DHT22;28937;51.160;4.146;2022-09-01T10:37:49;23.80;71.60
43346;DHT22;28937;51.160;4.146;2022-09-01T10:42:57;24.00;72.40
43346;DHT22;28937;51.160;4.146;2022-09-01T10:45:35;24.00;68.60
43346;DHT22;28937;51.160;4.146;2022-09-01T10:50:50;23.60;67.00
43346;DHT22;28937;51.160;4.146;2022-09-01T10:56:12;23.70;67.00
43346;DHT22;28937;51.160;4.146;2022-09-01T11:09:28;24.00;67.60
43346;DHT22;28937;51.160;4.146;2022-09-01T11:14:32;24.20;65.40
43346;DHT22;28937;51.160;4.146;2022-09-01T11:17:24;24.20;67.70
43346;DHT22;28937;51.160;4.146;2022-09-01T11:22:45;24.00;65.20
43346;DHT22;28937;51.160;4.146;2022-09-01T11:25:43;24.10;66.80
43346;DHT22;28937;51.160;4.146;2022-09-01T11:30:42;23.90;64.20
43346;DHT22;28937;51.160;4.146;2022-09-01T11:44:40;24.20;65.10
43346;DHT22;28937;51.160;4.146;2022-09-01T11:47:13;24.40;66.00
43346;DHT22;28937;51.160;4.146;2022-09-01T11:49:52;24.60;66.00
43346;DHT22;28937;51.160;4.146;2022-09-01T11:52:21;24.40;63.80
43346;DHT22;28937;51.160;4.146;2022-09-01T11:54:47;24.20;62.70
43346;DHT22;28937;51.160;4.146;2022-09-01T11:57:34;24.30;66.00
43346;DHT22;28937;51.160;4.146;2022-09-01T12:00:09;24.40;64.10
43346;DHT22;28937;51.160;4.146;2022-09-01T12:02:45;24.40;63.80
43346;DHT22;28937;51.160;4.146;2022-09-01T12:05:27;24.60;63.20
43346;DHT22;28937;51.160;4.146;2022-09-01T12:07:53;24.70;63.70
43346;DHT22;28937;51.160;4.146;2022-09-01T12:10:32;24.40;62.50
43346;DHT22;28937;51.160;4.146;2022-09-01T12:13:18;24.50;63.90
43346;DHT22;28937;51.160;4.146;2022-09-01T12:16:09;24.60;63.00
43346;DHT22;28937;51.160;4.146;2022-09-01T12:18:46;24.60;63.10
43346;DHT22;28937;51.160;4.146;2022-09-01T12:23:49;24.50;62.50
43346;DHT22;28937;51.160;4.146;2022-09-01T12:26:27;24.70;61.40
43346;DHT22;28937;51.160;4.146;2022-09-01T12:28:54;24.70;62.90
43346;DHT22;28937;51.160;4.146;2022-09-01T12:31:23;24.70;61.30
43346;DHT22;28937;51.160;4.146;2022-09-01T12:33:50;24.70;61.40
43346;DHT22;28937;51.160;4.146;2022-09-01T12:36:31;24.60;61.50
43346;DHT22;28937;51.160;4.146;2022-09-01T12:41:44;24.50;62.80
43346;DHT22;28937;51.160;4.146;2022-09-01T12:47:07;24.30;62.10
43346;DHT22;28937;51.160;4.146;2022-09-01T12:49:46;24.30;62.30
43346;DHT22;28937;51.160;4.146;2022-09-01T12:55:14;24.40;61.90
43346;DHT22;28937;51.160;4.146;2022-09-01T12:57:47;24.40;62.00
43346;DHT22;28937;51.160;4.146;2022-09-01T13:00:22;24.50;61.90
43346;DHT22;28937;51.160;4.146;2022-09-01T13:05:33;24.70;64.40
43346;DHT22;28937;51.160;4.146;2022-09-01T13:08:05;24.80;61.70
43346;DHT22;28937;51.160;4.146;2022-09-01T13:10:34;25.00;65.00
43346;DHT22;28937;51.160;4.146;2022-09-01T13:13:04;25.00;61.50
43346;DHT22;28937;51.160;4.146;2022-09-01T13:15:30;25.10;63.50
43346;DHT22;28937;51.160;4.146;2022-09-01T13:17:56;25.10;60.70
43346;DHT22;28937;51.160;4.146;2022-09-01T13:20:22;25.00;60.40
43346;DHT22;28937;51.160;4.146;2022-09-01T13:22:48;25.00;60.80
43346;DHT22;28937;51.160;4.146;2022-09-01T13:25:16;24.90;60.80
43346;DHT22;28937;51.160;4.146;2022-09-01T13:27:44;24.80;60.20
43346;DHT22;28937;51.160;4.146;2022-09-01T13:30:13;24.60;60.30
43346;DHT22;28937;51.160;4.146;2022-09-01T13:32:40;24.70;60.30
43346;DHT22;28937;51.160;4.146;2022-09-01T13:35:07;24.90;60.80
43346;DHT22;28937;51.160;4.146;2022-09-01T13:37:33;24.90;60.10
43346;DHT22;28937;51.160;4.146;2022-09-01T13:39:59;24.80;59.90
43346;DHT22;28937;51.160;4.146;2022-09-01T13:42:24;24.80;59.70
43346;DHT22;28937;51.160;4.146;2022-09-01T13:44:50;24.80;59.70
43346;DHT22;28937;51.160;4.146;2022-09-01T13:47:15;24.70;59.40
43346;DHT22;28937;51.160;4.146;2022-09-01T13:49:41;24.80;60.80
43346;DHT22;28937;51.160;4.146;2022-09-01T13:52:07;24.80;58.80
43346;DHT22;28937;51.160;4.146;2022-09-01T13:54:32;25.00;59.90
43346;DHT22;28937;51.160;4.146;2022-09-01T13:56:58;25.00;58.80
43346;DHT22;28937;51.160;4.146;2022-09-01T13:59:23;24.90;59.20
43346;DHT22;28937;51.160;4.146;2022-09-01T14:01:49;25.10;58.70
43346;DHT22;28937;51.160;4.146;2022-09-01T14:04:15;24.90;58.40
43346;DHT22;28937;51.160;4.146;2022-09-01T14:06:42;25.00;60.00
43346;DHT22;28937;51.160;4.146;2022-09-01T14:09:09;25.20;59.60
43346;DHT22;28937;51.160;4.146;2022-09-01T14:11:35;25.10;58.80
43346;DHT22;28937;51.160;4.146;2022-09-01T14:14:01;25.20;57.90
43346;DHT22;28937;51.160;4.146;2022-09-01T14:16:27;25.30;57.90
43346;DHT22;28937;51.160;4.146;2022-09-01T14:18:52;25.20;58.50
43346;DHT22;28937;51.160;4.146;2022-09-01T14:21:18;25.10;58.80
43346;DHT22;28937;51.160;4.146;2022-09-01T14:23:44;25.20;58.30
43346;DHT22;28937;51.160;4.146;2022-09-01T14:26:13;25.20;59.90
43346;DHT22;28937;51.160;4.146;2022-09-01T14:28:40;25.30;58.80
43346;DHT22;28937;51.160;4.146;2022-09-01T14:31:11;25.20;59.60
43346;DHT22;28937;51.160;4.146;2022-09-01T14:33:37;25.30;58.50
43346;DHT22;28937;51.160;4.146;2022-09-01T14:36:04;25.20;59.10
43346;DHT22;28937;51.160;4.146;2022-09-01T14:38:30;25.10;59.00
43346;DHT22;28937;51.160;4.146;2022-09-01T14:40:56;25.10;59.10
43346;DHT22;28937;51.160;4.146;2022-09-01T14:43:22;25.00;58.50
43346;DHT22;28937;51.160;4.146;2022-09-01T14:45:48;25.00;58.90
43346;DHT22;28937;51.160;4.146;2022-09-01T14:48:18;25.10;57.70
43346;DHT22;28937;51.160;4.146;2022-09-01T14:50:47;25.10;57.70
43346;DHT22;28937;51.160;4.146;2022-09-01T14:53:13;25.10;57.30
43346;DHT22;28937;51.160;4.146;2022-09-01T14:55:39;25.00;57.20
43346;DHT22;28937;51.160;4.146;2022-09-01T14:58:05;25.00;57.70
43346;DHT22;28937;51.160;4.146;2022-09-01T15:00:31;25.10;57.00
43346;DHT22;28937;51.160;4.146;2022-09-01T15:03:00;25.20;57.20
43346;DHT22;28937;51.160;4.146;2022-09-01T15:05:26;25.30;57.20
43346;DHT22;28937;51.160;4.146;2022-09-01T15:07:52;25.30;56.60
43346;DHT22;28937;51.160;4.146;2022-09-01T15:10:20;25.30;56.90
43346;DHT22;28937;51.160;4.146;2022-09-01T15:12:46;25.20;56.80
43346;DHT22;28937;51.160;4.146;2022-09-01T15:15:14;25.40;58.20
43346;DHT22;28937;51.160;4.146;2022-09-01T15:17:40;25.60;58.30
43346;DHT22;28937;51.160;4.146;2022-09-01T15:20:06;25.60;57.20
43346;DHT22;28937;51.160;4.146;2022-09-01T15:22:51;25.60;56.60
43346;DHT22;28937;51.160;4.146;2022-09-01T15:25:17;25.50;56.90
43346;DHT22;28937;51.160;4.146;2022-09-01T15:27:43;25.40;54.70
43346;DHT22;28937;51.160;4.146;2022-09-01T15:30:10;25.50;56.40
43346;DHT22;28937;51.160;4.146;2022-09-01T15:32:41;25.40;55.40
43346;DHT22;28937;51.160;4.146;2022-09-01T15:35:07;25.40;56.10
43346;DHT22;28937;51.160;4.146;2022-09-01T15:37:33;25.40;56.40
43346;DHT22;28937;51.160;4.146;2022-09-01T15:39:58;25.50;56.60
43346;DHT22;28937;51.160;4.146;2022-09-01T15:42:24;25.30;55.60
43346;DHT22;28937;51.160;4.146;2022-09-01T15:44:50;25.10;55.70
43346;DHT22;28937;51.160;4.146;2022-09-01T15:47:16;25.40;57.50
43346;DHT22;28937;51.160;4.146;2022-09-01T15:49:42;25.50;55.60
43346;DHT22;28937;51.160;4.146;2022-09-01T15:52:07;25.60;56.40
43346;DHT22;28937;51.160;4.146;2022-09-01T15:54:36;25.70;56.10
43346;DHT22;28937;51.160;4.146;2022-09-01T15:57:02;25.70;56.60
43346;DHT22;28937;51.160;4.146;2022-09-01T15:59:28;25.60;54.30
43346;DHT22;28937;51.160;4.146;2022-09-01T16:01:53;25.40;54.40
43346;DHT22;28937;51.160;4.146;2022-09-01T16:04:19;25.30;54.40
43346;DHT22;28937;51.160;4.146;2022-09-01T16:06:45;25.40;54.50
43346;DHT22;28937;51.160;4.146;2022-09-01T16:09:11;25.30;54.50
43346;DHT22;28937;51.160;4.146;2022-09-01T16:11:39;25.50;56.20
43346;DHT22;28937;51.160;4.146;2022-09-01T16:14:05;25.70;57.50
43346;DHT22;28937;51.160;4.146;2022-09-01T16:21:50;25.70;54.70
43346;DHT22;28937;51.160;4.146;2022-09-01T16:24:17;25.70;54.50
43346;DHT22;28937;51.160;4.146;2022-09-01T16:26:45;25.70;55.30
43346;DHT22;28937;51.160;4.146;2022-09-01T16:29:18;25.70;54.30
43346;DHT22;28937;51.160;4.146;2022-09-01T16:31:49;25.50;54.10
43346;DHT22;28937;51.160;4.146;2022-09-01T16:34:17;25.30;53.10
43346;DHT22;28937;51.160;4.146;2022-09-01T16:50:24;25.30;52.60
43346;DHT22;28937;51.160;4.146;2022-09-01T16:56:41;25.50;53.20
43346;DHT22;28937;51.160;4.146;2022-09-01T17:01:55;25.60;52.30
43346;DHT22;28937;51.160;4.146;2022-09-01T17:04:57;25.50;53.70
43346;DHT22;28937;51.160;4.146;2022-09-01T17:07:31;25.60;52.50
43346;DHT22;28937;51.160;4.146;2022-09-01T17:12:52;25.70;52.20
43346;DHT22;28937;51.160;4.146;2022-09-01T17:15:30;25.40;52.30
43346;DHT22;28937;51.160;4.146;2022-09-01T17:20:34;25.40;52.70
43346;DHT22;28937;51.160;4.146;2022-09-01T17:23:05;25.40;53.00
43346;DHT22;28937;51.160;4.146;2022-09-01T17:25:39;25.50;53.40
43346;DHT22;28937;51.160;4.146;2022-09-01T17:28:11;25.50;52.80